Flight Track Log - Related Links

Times and Time Zones

All times are in EDT time to prevent confusion due to time zone crossing. See the AMF1019 flight status page for this flight to view local times or setup timezone preferences in your user account.

Time Position Orientation Groundspeed Altitude Reporting Facility
EDT Latitude Longitude Course Direction KTS MPH feet Rate Location/Type
Wed 09:35:18 PM 37.5333 -77.3167 270° West 155 178 1,100  Level Potomac TRACON
Wed 09:36:12 PM 37.5333 -77.3667 270° West 193 222 2,500 2,085 Climbing Potomac TRACON
Wed 09:37:39 PM 37.4894 -77.4369 232° Southwest 188 216 6,000 2,276 Climbing Washington Center
Wed 09:38:37 PM 37.4658 -77.4861 239° Southwest 182 209 8,000 2,067 Climbing Washington Center
Wed 09:39:38 PM 37.4525 -77.5408 253° West 171 197 10,100 1,934 Climbing Washington Center
Wed 09:40:38 PM 37.4392 -77.5953 253° West 171 197 11,900 1,785 Climbing Washington Center
Wed 09:41:39 PM 37.4275 -77.6553 256° West 166 191 13,700 1,785 Climbing Washington Center
Wed 09:42:39 PM 37.4119 -77.7125 251° West 166 191 15,500 1,831 Climbing Washington Center
Wed 09:43:37 PM 37.4028 -77.7697 259° West 166 191 17,300 1,780 Climbing Washington Center
Wed 09:44:37 PM 37.3933 -77.8269 258° West 166 191 19,000 1,289 Climbing Washington Center
Wed 09:45:38 PM 37.3797 -77.8839 253° West 166 191 19,900 550 Climbing Washington Center
Wed 09:46:37 PM 37.3636 -77.9542 254° West 185 213 20,100 100 Climbing Washington Center
Wed 09:47:38 PM 37.3475 -78.0344 256° West 216 249 20,100  Level Washington Center
Wed 09:48:39 PM 37.3292 -78.1175 255° West 238 274 20,100  Level Washington Center
Wed 09:49:37 PM 37.3006 -78.1844 242° Southwest 239 275 20,100  Level Washington Center
Wed 09:50:38 PM 37.2556 -78.2403 225° Southwest 234 269 20,100  Level Washington Center
Wed 09:51:39 PM 37.2083 -78.2961 223° Southwest 240 276 20,100  Level Washington Center
Wed 09:52:37 PM 37.1508 -78.3514 217° Southwest 240 276 20,100  Level Washington Center
Wed 09:53:37 PM 37.0953 -78.4014 216° Southwest 245 282 20,100  Level Washington Center
Wed 09:54:38 PM 37.0400 -78.4542 217° Southwest 250 288 20,100  Level Washington Center
Wed 09:55:38 PM 36.9989 -78.5150 230° Southwest 245 282 20,100  Level Washington Center
Wed 09:56:39 PM 36.9947 -78.5928 266° West 235 270 20,100  Level Washington Center
Wed 09:57:39 PM 37.0011 -78.6764 275° West 235 270 20,100  Level Washington Center
Wed 09:58:37 PM 37.0197 -78.7578 286° West 240 276 20,100  Level Washington Center
Wed 09:59:38 PM 37.0592 -78.8425 300° West 246 283 20,100  Level Washington Center
Wed 10:00:39 PM 37.0944 -78.9222 299° West 258 297 20,100  Level Washington Center
Wed 10:01:37 PM 37.1278 -78.9992 299° West 258 297 20,100  Level Washington Center
Wed 10:02:38 PM 37.1653 -79.0764 301° West 258 297 20,100  Level Washington Center
Wed 10:03:39 PM 37.1964 -79.1483 299° West 258 297 20,100 -50 Level Washington Center
Wed 10:04:39 PM 37.2339 -79.2283 301° West 264 304 20,000 -50 Descending Washington Center
Wed 10:05:40 PM 37.2711 -79.3058 301° West 264 304 20,000 51 Level Washington Center
Wed 10:06:37 PM 37.3061 -79.3831 300° West 264 304 20,100 51 Climbing Washington Center
Wed 10:07:38 PM 37.3431 -79.4711 298° West 264 304 20,100 -50 Level Washington Center
Wed 10:08:38 PM 37.3819 -79.5517 301° West 269 310 20,000  Descending Washington Center
Wed 10:09:39 PM 37.4169 -79.6292 300° West 269 310 20,100 50 Climbing Washington Center
Wed 10:10:37 PM 37.4481 -79.6964 300° West 261 300 20,100  Level Washington Center
Wed 10:11:38 PM 37.4889 -79.7822 301° West 263 303 20,100  Level Washington Center
Wed 10:12:39 PM 37.5214 -79.8653 296° West 268 308 20,100  Level Washington Center
Wed 10:13:37 PM 37.5544 -79.9353 301° West 268 308 20,100  Level Washington Center
Wed 10:14:38 PM 37.5869 -80.0158 297° West 268 308 20,100  Level Washington Center
Wed 10:15:38 PM 37.6217 -80.0911 300° West 268 308 20,100  Level Washington Center
Wed 10:16:39 PM 37.6542 -80.1692 298° West 268 308 20,100 -50 Level Washington Center
Wed 10:17:37 PM 37.6947 -80.2531 301° West 263 303 20,000  Descending Washington Center
Wed 10:18:37 PM 37.7292 -80.3339 298° West 258 297 20,100 49 Climbing Washington Center
Wed 10:19:39 PM 37.7614 -80.4122 298° West 258 297 20,100  Level Washington Center
Wed 10:21:26 PM 37.8197 -80.5425 300° West 259 298 20,100  Level Indianapolis Center
Wed 10:22:27 PM 37.8539 -80.6211 299° West 256 295 20,100  Level Indianapolis Center
Wed 10:23:28 PM 37.8800 -80.7036 292° West 251 289 20,100  Level Indianapolis Center
Wed 10:24:29 PM 37.8983 -80.7903 285° West 253 291 20,100  Level Indianapolis Center
Wed 10:25:31 PM 37.9169 -80.8769 285° West 253 291 20,100  Level Indianapolis Center
Wed 10:26:32 PM 37.9386 -80.9831 285° West 259 298 20,100  Level Indianapolis Center
Wed 10:27:33 PM 37.9594 -81.0694 287° West 257 296 20,100  Level Indianapolis Center
Wed 10:28:34 PM 37.9792 -81.1567 286° West 257 296 20,100  Level Indianapolis Center
Wed 10:29:35 PM 37.9986 -81.2419 286° West 251 289 20,100  Level Indianapolis Center
Wed 10:30:37 PM 38.0189 -81.3294 286° West 256 295 20,100  Level Indianapolis Center
Wed 10:31:38 PM 38.0392 -81.4164 287° West 256 295 20,100  Level Indianapolis Center
Wed 10:32:39 PM 38.0603 -81.5025 287° West 256 295 20,100  Level Indianapolis Center
Wed 10:33:40 PM 38.0786 -81.5908 285° West 258 297 20,100  Level Indianapolis Center
Wed 10:34:42 PM 38.0969 -81.6767 285° West 256 295 20,100  Level Indianapolis Center
Wed 10:35:43 PM 38.1153 -81.7636 285° West 252 290 20,100  Level Indianapolis Center
Wed 10:36:44 PM 38.1350 -81.8517 286° West 257 296 20,100  Level Indianapolis Center
Wed 10:37:45 PM 38.1542 -81.9389 286° West 257 296 20,100  Level Indianapolis Center
Wed 10:38:46 PM 38.1728 -82.0267 285° West 257 296 20,100  Level Indianapolis Center
Wed 10:39:47 PM 38.1917 -82.1156 285° West 259 298 20,100  Level Indianapolis Center
Wed 10:40:49 PM 38.2150 -82.2208 286° West 258 297 20,100  Level Indianapolis Center
Wed 10:41:50 PM 38.2356 -82.3119 286° West 264 304 20,100  Level Indianapolis Center
Wed 10:42:51 PM 38.2558 -82.3978 287° West 256 295 20,100  Level Indianapolis Center
Wed 10:43:53 PM 38.2772 -82.4872 287° West 263 303 20,100  Level Indianapolis Center
Wed 10:44:54 PM 38.2961 -82.5825 284° West 260 299 20,100  Level Indianapolis Center
Wed 10:45:55 PM 38.3156 -82.6722 285° West 262 302 20,100 -634 Level Indianapolis Center
Wed 10:46:57 PM 38.3356 -82.7631 286° West 264 304 18,800 -1,220 Descending Indianapolis Center
Wed 10:47:58 PM 38.3536 -82.8567 284° West 271 312 17,600 -1,082 Descending Indianapolis Center
Wed 10:48:59 PM 38.3719 -82.9486 284° West 268 308 16,600 -976 Descending Indianapolis Center
Wed 10:50:01 PM 38.3931 -83.0383 287° West 264 304 15,600 -1,073 Descending Indianapolis Center
Wed 10:51:02 PM 38.4119 -83.1297 285° West 265 305 14,400 -1,131 Descending Indianapolis Center
Wed 10:52:03 PM 38.4297 -83.2186 284° West 261 300 13,300 -1,220 Descending Indianapolis Center
Wed 10:53:05 PM 38.4519 -83.3219 285° West 260 299 11,900 -1,268 Descending Indianapolis Center
Wed 10:54:06 PM 38.4700 -83.4108 285° West 258 297 10,700 -1,180 Descending Indianapolis Center
Wed 10:55:07 PM 38.4867 -83.4992 284° West 257 296 9,500 -836 Descending Indianapolis Center
Wed 10:56:08 PM 38.5036 -83.5847 284° West 250 288 9,000 -244 Descending Indianapolis Center
Wed 10:57:10 PM 38.5192 -83.6672 284° West 241 277 9,000  Level Indianapolis Center
Wed 10:58:11 PM 38.5361 -83.7475 285° West 235 270 9,000  Level Indianapolis Center
Wed 10:59:12 PM 38.5517 -83.8272 284° West 233 268 9,000  Level Indianapolis Center
Wed 11:00:14 PM 38.5681 -83.9075 285° West 233 268 9,000  Level Indianapolis Center
Wed 11:01:15 PM 38.5861 -84.0019 284° West 235 270 9,000  Level Indianapolis Center
Wed 11:02:16 PM 38.6022 -84.0811 285° West 231 266 9,000 -197 Level Indianapolis Center
Wed 11:03:17 PM 38.6175 -84.1622 284° West 234 269 8,600 -585 Descending Indianapolis Center
Wed 11:04:19 PM 38.6353 -84.2494 285° West 246 283 7,800 -829 Descending Indianapolis Center
Wed 11:05:20 PM 38.6650 -84.3333 294° West 259 298 6,900 -984 Descending Indianapolis Center
Wed 11:06:21 PM 38.7244 -84.3869 325° Northwest 245 282 5,800 -829 Descending Indianapolis Center
Wed 11:07:23 PM 38.7750 -84.4408 320° Northwest 237 273 5,200 -390 Descending Indianapolis Center
Wed 11:08:24 PM 38.8214 -84.4914 320° Northwest 222 255 5,000 -344 Descending Indianapolis Center
Wed 11:09:25 PM 38.8414 -84.5397 298° West 193 222 4,500 -585 Descending Indianapolis Center
Wed 11:10:27 PM 38.8567 -84.6075 286° West 186 214 3,800 -613 Descending Indianapolis Center
Wed 11:11:42 PM 38.9000 -84.6500 323° Northwest 166 191 3,100 -533 Descending Cincinnati TRACON
Wed 11:12:42 PM 38.9500 -84.6667 345° North 149 171 2,600 -550 Descending Cincinnati TRACON
Wed 11:13:42 PM 38.9833 -84.6667 360° North 124 143 2,000 -650 Descending Cincinnati TRACON
Wed 11:14:42 PM 39.0167 -84.6667 360° North 120 138 1,300 -700 Descending Cincinnati TRACON
Wed 11:16:00 PM 39.0333 -84.6667 North  Level FlightAware Approximate
Wed 11:23:00 PM 39.0488 -84.6678 North  Level Estimated

Login

Don't have an account? Register now (free) for customized features, flight alerts, and more!